createdAt,value
2018-04-24T00:01:44.760Z,89.80
2018-04-24T00:04:11.961Z,89.40
2018-04-24T00:06:38.471Z,89.40
2018-04-24T00:09:05.005Z,89.40
2018-04-24T00:11:31.485Z,89.40
2018-04-24T00:13:57.962Z,89.80
2018-04-24T00:16:25.215Z,90.00
2018-04-24T00:18:52.395Z,89.90
2018-04-24T00:21:18.835Z,89.90
2018-04-24T00:23:45.288Z,89.60
2018-04-24T00:26:11.811Z,89.40
2018-04-24T00:28:38.227Z,89.60
2018-04-24T00:31:04.702Z,90.00
2018-04-24T00:33:31.175Z,89.90
2018-04-24T00:35:58.351Z,89.90
2018-04-24T00:38:24.817Z,89.80
2018-04-24T00:40:51.332Z,89.50
2018-04-24T00:43:17.795Z,89.00
2018-04-24T00:45:44.262Z,89.60
2018-04-24T00:48:10.747Z,89.70
2018-04-24T00:50:38.288Z,89.40
2018-04-24T00:53:17.924Z,89.80
2018-04-24T00:55:44.401Z,89.80
2018-04-24T00:58:10.874Z,89.50
2018-04-24T01:00:37.376Z,89.70
2018-04-24T01:03:04.605Z,89.50
2018-04-24T01:05:31.043Z,89.40
2018-04-24T01:07:57.521Z,89.60
2018-04-24T01:10:24.709Z,89.30
2018-04-24T01:12:51.135Z,89.20
2018-04-24T01:15:17.579Z,89.50
2018-04-24T01:17:43.998Z,89.70
2018-04-24T01:20:10.498Z,89.50
2018-04-24T01:22:37.666Z,89.40
2018-04-24T01:25:04.175Z,89.40
2018-04-24T01:27:31.380Z,89.70
2018-04-24T01:29:57.828Z,89.60
2018-04-24T01:32:24.270Z,89.60
2018-04-24T01:34:50.687Z,90.10
2018-04-24T01:37:17.121Z,90.00
2018-04-24T01:39:43.594Z,90.00
2018-04-24T01:42:10.073Z,90.00
2018-04-24T01:44:36.538Z,90.00
2018-04-24T01:47:24.387Z,89.70
2018-04-24T01:49:50.819Z,89.90
2018-04-24T01:52:17.272Z,90.00
2018-04-24T01:54:44.454Z,90.20
2018-04-24T01:57:10.901Z,90.00
2018-04-24T01:59:37.354Z,90.10
2018-04-24T02:02:03.828Z,90.10
2018-04-24T02:04:31.034Z,90.10
2018-04-24T02:06:57.501Z,90.10
2018-04-24T02:09:23.962Z,90.20
2018-04-24T02:11:51.192Z,90.20
2018-04-24T02:14:18.401Z,90.20
2018-04-24T02:16:44.883Z,90.40
2018-04-24T02:19:11.331Z,90.40
2018-04-24T02:21:37.791Z,90.30
2018-04-24T02:24:04.251Z,90.50
2018-04-24T02:26:30.697Z,90.40
2018-04-24T02:28:57.167Z,90.50
2018-04-24T02:31:23.629Z,90.40
2018-04-24T02:33:50.081Z,90.50
2018-04-24T02:36:16.527Z,90.50
2018-04-24T02:38:42.997Z,90.60
2018-04-24T02:41:10.198Z,90.70
2018-04-24T02:43:36.663Z,90.70
2018-04-24T02:46:03.881Z,90.50
2018-04-24T02:48:30.379Z,90.80
2018-04-24T02:50:57.573Z,90.80
2018-04-24T02:53:24.027Z,90.80
2018-04-24T02:55:50.459Z,90.90
2018-04-24T02:58:16.928Z,91.00
2018-04-24T03:00:44.098Z,91.10
2018-04-24T03:03:10.541Z,91.10
2018-04-24T03:05:37.005Z,91.00
2018-04-24T03:08:03.448Z,90.90
2018-04-24T03:10:29.930Z,90.90
2018-04-24T03:12:56.338Z,90.90
2018-04-24T03:15:23.618Z,90.70
2018-04-24T03:17:50.055Z,90.80
2018-04-24T03:20:16.519Z,91.10
2018-04-24T03:22:42.997Z,91.00
2018-04-24T03:25:10.162Z,91.20
2018-04-24T03:27:37.340Z,91.00
2018-04-24T03:30:03.784Z,91.00
2018-04-24T03:32:30.238Z,91.00
2018-04-24T03:34:56.701Z,91.00
2018-04-24T03:37:23.889Z,91.10
2018-04-24T03:39:50.367Z,91.10
2018-04-24T03:42:16.845Z,91.20
2018-04-24T03:44:43.275Z,91.30
2018-04-24T03:47:09.752Z,91.20
2018-04-24T03:49:36.220Z,91.60
2018-04-24T03:52:03.396Z,91.10
2018-04-24T03:54:29.860Z,91.10
2018-04-24T03:56:56.295Z,91.10
2018-04-24T03:59:22.747Z,90.90
2018-04-24T04:01:49.251Z,91.00
2018-04-24T04:04:15.780Z,91.10
2018-04-24T04:06:42.193Z,91.20
2018-04-24T04:09:09.371Z,91.30
2018-04-24T04:11:35.874Z,91.30
2018-04-24T04:14:03.089Z,91.30
2018-04-24T04:16:30.266Z,91.30
2018-04-24T04:19:09.567Z,91.20
2018-04-24T04:21:49.162Z,91.20
2018-04-24T04:24:27.912Z,91.20
2018-04-24T04:26:54.325Z,91.30
2018-04-24T04:29:20.785Z,91.40
2018-04-24T04:31:47.284Z,91.50
2018-04-24T04:34:14.469Z,91.50
2018-04-24T04:36:40.945Z,91.50
2018-04-24T04:39:07.399Z,91.50
2018-04-24T04:41:34.584Z,91.10
2018-04-24T04:44:01.029Z,91.10
2018-04-24T04:46:27.466Z,91.30
2018-04-24T04:48:53.932Z,91.10
2018-04-24T04:51:20.350Z,91.10
2018-04-24T04:53:46.768Z,91.00
2018-04-24T04:56:14.532Z,91.00
2018-04-24T04:58:40.978Z,90.80
2018-04-24T05:01:07.424Z,90.50
2018-04-24T05:03:33.872Z,90.50
2018-04-24T05:06:00.301Z,90.50
2018-04-24T05:08:26.738Z,90.60
2018-04-24T05:10:53.914Z,90.70
2018-04-24T05:13:21.087Z,90.40
2018-04-24T05:15:47.514Z,90.40
2018-04-24T05:18:13.997Z,90.30
2018-04-24T05:20:40.469Z,90.40
2018-04-24T05:23:06.914Z,90.70
2018-04-24T05:25:33.395Z,90.80
2018-04-24T05:27:59.832Z,91.00
2018-04-24T05:30:26.257Z,91.80
2018-04-24T05:32:52.675Z,92.30
2018-04-24T05:35:19.111Z,92.90
2018-04-24T05:37:45.525Z,93.40
2018-04-24T05:40:11.971Z,93.40
2018-04-24T05:42:38.375Z,93.60
2018-04-24T05:45:04.791Z,92.50
2018-04-24T05:47:31.952Z,92.00
2018-04-24T05:49:59.111Z,91.60
2018-04-24T05:52:25.520Z,91.60
2018-04-24T05:54:52.697Z,91.10
2018-04-24T05:57:19.119Z,91.10
2018-04-24T05:59:45.536Z,91.30
2018-04-24T06:02:11.951Z,91.00
2018-04-24T06:04:38.357Z,91.30
2018-04-24T06:07:04.784Z,91.20
2018-04-24T06:09:31.214Z,91.10
2018-04-24T06:11:57.645Z,91.50
2018-04-24T06:14:24.055Z,91.20
2018-04-24T06:16:50.486Z,91.40
2018-04-24T06:19:16.984Z,92.30
2018-04-24T06:21:43.340Z,92.50
2018-04-24T06:24:10.519Z,93.90
2018-04-24T06:26:36.933Z,93.80
2018-04-24T06:29:03.350Z,93.90
2018-04-24T06:31:30.526Z,94.40
2018-04-24T06:33:56.938Z,94.30
2018-04-24T06:36:24.099Z,95.30
2018-04-24T06:38:50.522Z,95.30
2018-04-24T06:41:16.928Z,95.80
2018-04-24T06:43:43.350Z,95.60
2018-04-24T06:46:09.769Z,94.60
2018-04-24T06:48:36.196Z,94.90
2018-04-24T06:51:02.652Z,94.80
2018-04-24T06:53:29.166Z,94.70
2018-04-24T06:55:55.522Z,95.00
2018-04-24T06:58:21.957Z,95.00
2018-04-24T07:00:48.379Z,94.60
2018-04-24T07:03:14.825Z,94.10
2018-04-24T07:05:41.234Z,93.90
2018-04-24T07:08:07.664Z,93.70
2018-04-24T07:10:34.074Z,93.30
2018-04-24T07:13:00.492Z,93.40
2018-04-24T07:15:27.674Z,93.00
2018-04-24T07:17:54.095Z,93.00
2018-04-24T07:20:20.537Z,92.70
2018-04-24T07:22:46.946Z,92.30
2018-04-24T07:25:13.379Z,92.30
2018-04-24T07:27:40.530Z,91.70
2018-04-24T07:30:07.676Z,91.80
2018-04-24T07:32:34.839Z,91.80
2018-04-24T07:35:02.020Z,91.70
2018-04-24T07:37:31.406Z,91.70
2018-04-24T07:39:57.833Z,91.60
2018-04-24T07:42:24.255Z,91.60
2018-04-24T07:44:50.684Z,91.20
2018-04-24T07:47:17.854Z,90.60
2018-04-24T07:49:44.268Z,90.60
2018-04-24T07:52:11.417Z,90.90
2018-04-24T07:54:38.576Z,90.80
2018-04-24T07:57:05.729Z,91.10
2018-04-24T07:59:32.909Z,90.20
2018-04-24T08:01:59.353Z,90.20
2018-04-24T08:04:25.785Z,88.80
2018-04-24T08:06:52.208Z,89.10
2018-04-24T08:09:18.631Z,88.20
2018-04-24T08:11:45.050Z,88.30
2018-04-24T08:14:11.465Z,87.80
2018-04-24T08:16:38.719Z,87.40
2018-04-24T08:19:05.072Z,87.40
2018-04-24T08:21:31.500Z,87.20
2018-04-24T08:23:57.930Z,87.30
2018-04-24T08:26:25.088Z,87.60
2018-04-24T08:28:51.530Z,87.60
2018-04-24T08:31:17.947Z,87.10
2018-04-24T08:33:44.395Z,87.20
2018-04-24T08:36:11.545Z,88.00
2018-04-24T08:38:37.976Z,88.00
2018-04-24T08:41:04.417Z,88.70
2018-04-24T08:43:30.896Z,88.60
2018-04-24T08:45:57.320Z,88.60
2018-04-24T08:48:23.726Z,87.90
2018-04-24T08:50:50.179Z,87.30
2018-04-24T08:53:16.632Z,88.50
2018-04-24T08:55:43.056Z,88.50
2018-04-24T08:58:09.485Z,88.40
2018-04-24T09:00:35.909Z,87.90
2018-04-24T09:03:02.350Z,87.30
2018-04-24T09:05:28.808Z,86.80
2018-04-24T09:07:55.245Z,86.00
2018-04-24T09:10:21.651Z,85.30
2018-04-24T09:12:48.063Z,85.30
2018-04-24T09:15:14.500Z,85.20
2018-04-24T09:17:40.924Z,85.70
2018-04-24T09:20:07.358Z,84.60
2018-04-24T09:22:33.768Z,82.90
2018-04-24T09:25:00.197Z,82.70
2018-04-24T09:27:27.372Z,83.10
2018-04-24T09:29:59.887Z,83.00
2018-04-24T09:32:26.326Z,84.00
2018-04-24T09:34:52.737Z,84.70
2018-04-24T09:37:19.155Z,84.30
2018-04-24T09:39:46.557Z,84.60
2018-04-24T09:42:12.990Z,84.20
2018-04-24T09:44:39.424Z,84.80
2018-04-24T09:47:05.850Z,84.10
2018-04-24T09:49:32.348Z,85.80
2018-04-24T09:51:59.477Z,84.40
2018-04-24T09:54:25.892Z,84.30
2018-04-24T09:56:53.056Z,84.90
2018-04-24T09:59:19.487Z,84.90
2018-04-24T10:01:45.923Z,84.60
2018-04-24T10:04:12.359Z,84.60
2018-04-24T10:06:38.770Z,85.10
2018-04-24T10:09:05.938Z,85.50
2018-04-24T10:11:32.444Z,85.40
2018-04-24T10:13:58.889Z,84.60
2018-04-24T10:16:26.059Z,84.50
2018-04-24T10:18:52.487Z,84.40
2018-04-24T10:21:19.709Z,84.40
2018-04-24T10:23:46.178Z,84.30
2018-04-24T10:26:13.342Z,82.60
2018-04-24T10:28:39.766Z,82.50
2018-04-24T10:31:06.180Z,82.60
2018-04-24T10:33:33.333Z,82.80
2018-04-24T10:35:59.744Z,82.70
2018-04-24T10:38:26.167Z,81.90
2018-04-24T10:40:52.587Z,82.30
2018-04-24T10:43:19.006Z,82.20
2018-04-24T10:45:45.441Z,81.80
2018-04-24T10:48:11.870Z,80.30
2018-04-24T10:50:38.296Z,78.70
2018-04-24T10:53:04.729Z,80.20
2018-04-24T10:55:31.137Z,80.30
2018-04-24T10:57:58.941Z,80.20
2018-04-24T11:00:25.366Z,80.20
2018-04-24T11:02:51.802Z,79.10
2018-04-24T11:05:18.203Z,79.90
2018-04-24T11:07:45.371Z,77.90
2018-04-24T11:10:11.798Z,77.70
2018-04-24T11:12:38.222Z,78.00
2018-04-24T11:15:05.406Z,77.40
2018-04-24T11:17:31.905Z,77.40
2018-04-24T11:19:59.043Z,78.40
2018-04-24T11:22:25.462Z,78.30
2018-04-24T11:24:51.890Z,78.30
2018-04-24T11:27:18.341Z,77.90
2018-04-24T11:29:44.755Z,79.10
2018-04-24T11:32:11.169Z,81.20
2018-04-24T11:34:37.591Z,81.30
2018-04-24T11:37:04.023Z,79.80
2018-04-24T11:39:30.442Z,78.80
2018-04-24T11:41:56.864Z,78.50
2018-04-24T11:44:24.056Z,79.60
2018-04-24T11:46:50.472Z,79.60
2018-04-24T11:49:16.906Z,79.80
2018-04-24T11:51:43.341Z,78.80
2018-04-24T11:54:09.774Z,78.60
2018-04-24T11:56:36.204Z,79.10
2018-04-24T11:59:02.651Z,79.30
2018-04-24T12:01:29.064Z,78.00
2018-04-24T12:03:55.477Z,76.90
2018-04-24T12:06:21.926Z,76.00
2018-04-24T12:08:48.359Z,76.20
2018-04-24T12:11:14.782Z,76.30
2018-04-24T12:13:41.183Z,77.80
2018-04-24T12:16:07.610Z,76.70
2018-04-24T12:18:34.033Z,76.30
2018-04-24T12:21:00.456Z,75.90
2018-04-24T12:23:26.869Z,77.20
2018-04-24T12:25:53.286Z,75.60
2018-04-24T12:28:20.442Z,78.10
2018-04-24T12:30:46.866Z,78.10
2018-04-24T12:33:13.292Z,78.80
2018-04-24T12:35:39.735Z,78.20
2018-04-24T12:38:06.883Z,76.30
2018-04-24T12:40:34.045Z,75.30
2018-04-24T12:43:00.484Z,75.20
2018-04-24T12:45:26.911Z,73.30
2018-04-24T12:47:53.361Z,72.20
2018-04-24T12:50:19.786Z,72.60
2018-04-24T12:52:46.237Z,74.20
2018-04-24T12:55:12.667Z,75.00
2018-04-24T12:57:39.121Z,72.90
2018-04-24T13:00:05.616Z,74.10
2018-04-24T13:02:32.038Z,72.90
2018-04-24T13:04:58.469Z,73.60
2018-04-24T13:07:25.626Z,74.80
2018-04-24T13:09:52.877Z,76.20
2018-04-24T13:12:19.334Z,76.20
2018-04-24T13:14:45.814Z,74.40
2018-04-24T13:17:12.280Z,74.80
2018-04-24T13:19:38.723Z,72.90
2018-04-24T13:22:05.145Z,70.90
2018-04-24T13:24:32.295Z,72.80
2018-04-24T13:26:59.476Z,72.60
2018-04-24T13:29:25.918Z,72.50
2018-04-24T13:31:52.342Z,71.90
2018-04-24T13:34:18.754Z,71.70
2018-04-24T13:36:45.244Z,73.00
2018-04-24T13:39:11.656Z,71.20
2018-04-24T13:41:38.072Z,71.20
2018-04-24T13:44:04.493Z,69.30
2018-04-24T13:46:30.910Z,68.10
2018-04-24T13:48:58.150Z,66.60
2018-04-24T13:51:24.557Z,66.40
2018-04-24T13:53:51.702Z,66.20
2018-04-24T13:56:18.112Z,66.20
2018-04-24T13:58:44.530Z,67.10
2018-04-24T14:01:10.945Z,68.90
2018-04-24T14:03:38.100Z,68.30
2018-04-24T14:06:05.290Z,66.80
2018-04-24T14:08:31.721Z,66.80
2018-04-24T14:10:58.148Z,66.70
2018-04-24T14:13:24.559Z,67.00
2018-04-24T14:15:50.991Z,67.00
2018-04-24T14:18:17.578Z,67.60
2018-04-24T14:20:44.028Z,66.90
2018-04-24T14:23:10.452Z,65.80
2018-04-24T14:25:36.878Z,67.40
2018-04-24T14:28:03.319Z,67.70
2018-04-24T14:30:29.786Z,68.60
2018-04-24T14:32:56.953Z,67.70
2018-04-24T14:35:23.374Z,67.60
2018-04-24T14:37:50.550Z,66.50
2018-04-24T14:40:16.999Z,66.40
2018-04-24T14:42:43.478Z,66.70
2018-04-24T14:45:09.849Z,67.60
2018-04-24T14:47:36.266Z,66.40
2018-04-24T14:50:02.764Z,66.00
2018-04-24T14:52:29.198Z,64.80
2018-04-24T14:54:55.605Z,66.20
2018-04-24T14:57:22.034Z,66.10
2018-04-24T14:59:48.458Z,66.50
2018-04-24T15:02:14.879Z,64.50
2018-04-24T15:04:41.326Z,65.20
2018-04-24T15:07:07.773Z,65.80
2018-04-24T15:09:34.206Z,65.20
2018-04-24T15:12:00.657Z,65.70
2018-04-24T15:14:27.105Z,64.50
2018-04-24T15:16:54.283Z,65.40
2018-04-24T15:19:20.705Z,65.40
2018-04-24T15:21:47.878Z,66.40
2018-04-24T15:24:14.295Z,66.40
2018-04-24T15:26:40.752Z,66.50
2018-04-24T15:29:07.192Z,66.50
2018-04-24T15:31:33.661Z,67.80
2018-04-24T15:34:00.094Z,68.30
2018-04-24T15:36:27.362Z,68.00
2018-04-24T15:38:53.763Z,68.00
2018-04-24T15:41:20.174Z,66.90
2018-04-24T15:43:46.608Z,67.10
2018-04-24T15:46:13.028Z,67.70
2018-04-24T15:48:39.449Z,68.10
2018-04-24T15:51:06.627Z,68.90
2018-04-24T15:53:33.065Z,68.90
2018-04-24T15:55:59.517Z,68.60
2018-04-24T15:58:25.927Z,68.30
2018-04-24T16:00:52.353Z,68.80
2018-04-24T16:03:20.075Z,68.10
2018-04-24T16:05:46.937Z,67.50
2018-04-24T16:10:59.914Z,66.80
2018-04-24T16:16:14.434Z,66.40
2018-04-24T16:18:40.866Z,66.40
2018-04-24T16:21:07.300Z,67.70
2018-04-24T16:23:33.731Z,68.60
2018-04-24T16:26:00.928Z,68.70
2018-04-24T16:28:27.348Z,68.70
2018-04-24T16:30:53.796Z,68.10
2018-04-24T16:33:20.227Z,66.60
2018-04-24T16:35:46.726Z,67.00
2018-04-24T16:38:13.096Z,66.90
2018-04-24T16:40:39.518Z,66.90
2018-04-24T16:43:05.967Z,67.80
2018-04-24T16:45:32.437Z,67.70
2018-04-24T16:47:58.931Z,68.10
2018-04-24T16:50:25.338Z,68.30
2018-04-24T16:52:51.761Z,68.60
2018-04-24T16:55:18.956Z,68.50
2018-04-24T16:57:45.395Z,68.40
2018-04-24T17:00:11.855Z,69.40
2018-04-24T17:02:38.300Z,69.30
2018-04-24T17:05:04.741Z,68.90
2018-04-24T17:07:31.168Z,69.30
2018-04-24T17:09:57.609Z,69.20
2018-04-24T17:12:24.042Z,69.50
2018-04-24T17:14:50.475Z,69.90
2018-04-24T17:17:16.941Z,70.90
2018-04-24T17:19:43.357Z,70.10
2018-04-24T17:22:10.531Z,71.70
2018-04-24T17:24:36.954Z,71.70
2018-04-24T17:27:03.428Z,72.40
2018-04-24T17:29:29.871Z,72.90
2018-04-24T17:31:56.305Z,72.60
2018-04-24T17:34:22.738Z,73.30
2018-04-24T17:36:49.173Z,73.00
2018-04-24T17:39:15.606Z,73.30
2018-04-24T17:41:42.033Z,72.90
2018-04-24T17:44:12.440Z,73.00
2018-04-24T17:46:41.613Z,74.20
2018-04-24T17:49:08.044Z,73.00
2018-04-24T17:51:35.228Z,72.80
2018-04-24T17:54:01.685Z,72.80
2018-04-24T17:56:28.103Z,72.70
2018-04-24T17:58:54.540Z,72.80
2018-04-24T18:01:21.005Z,72.90
2018-04-24T18:03:47.449Z,73.30
2018-04-24T18:06:14.668Z,73.60
2018-04-24T18:08:41.100Z,73.50
2018-04-24T18:11:07.555Z,73.40
2018-04-24T18:13:33.983Z,73.40
2018-04-24T18:16:00.447Z,74.20
2018-04-24T18:18:27.978Z,74.10
2018-04-24T18:20:54.405Z,74.10
2018-04-24T18:23:20.841Z,74.30
2018-04-24T18:25:47.266Z,74.60
2018-04-24T18:28:13.752Z,75.10
2018-04-24T18:30:40.966Z,75.90
2018-04-24T18:33:07.406Z,75.90
2018-04-24T18:35:33.838Z,76.60
2018-04-24T18:38:00.275Z,76.80
2018-04-24T18:40:26.707Z,77.30
2018-04-24T18:42:53.123Z,77.60
2018-04-24T18:45:19.555Z,77.70
2018-04-24T18:47:45.981Z,78.00
2018-04-24T18:50:12.407Z,78.50
2018-04-24T18:52:38.830Z,78.70
2018-04-24T18:55:05.303Z,78.80
2018-04-24T18:57:31.738Z,79.30
2018-04-24T18:59:58.937Z,79.70
2018-04-24T19:02:25.373Z,79.70
2018-04-24T19:04:51.801Z,80.00
2018-04-24T19:07:18.229Z,80.00
2018-04-24T19:09:44.633Z,80.40
2018-04-24T19:12:11.796Z,80.70
2018-04-24T19:14:38.239Z,80.60
2018-04-24T19:17:05.411Z,81.00
2018-04-24T19:19:31.900Z,81.00
2018-04-24T19:21:59.097Z,82.20
2018-04-24T19:24:31.480Z,82.00
2018-04-24T19:26:57.908Z,81.50
2018-04-24T19:29:24.340Z,81.80
2018-04-24T19:31:56.909Z,81.50
2018-04-24T19:34:23.341Z,81.90
2018-04-24T19:36:49.801Z,82.00
2018-04-24T19:39:22.419Z,82.20
2018-04-24T19:41:48.954Z,82.30
2018-04-24T19:44:16.190Z,82.10
2018-04-24T19:46:43.466Z,82.80
2018-04-24T19:49:16.718Z,82.30
2018-04-24T19:51:43.158Z,82.30
2018-04-24T19:54:09.665Z,82.60
2018-04-24T19:56:36.135Z,82.30
2018-04-24T19:59:02.605Z,82.10
2018-04-24T20:01:29.791Z,82.90
2018-04-24T20:03:56.242Z,82.90
2018-04-24T20:06:22.685Z,83.20
2018-04-24T20:08:49.156Z,83.20
2018-04-24T20:11:16.339Z,83.30
2018-04-24T20:13:42.824Z,83.20
2018-04-24T20:16:09.362Z,83.50
2018-04-24T20:18:35.873Z,83.60
2018-04-24T20:21:02.361Z,83.90
2018-04-24T20:23:28.793Z,83.90
2018-04-24T20:25:55.261Z,84.10
2018-04-24T20:28:21.691Z,83.90
2018-04-24T20:30:48.172Z,84.00
2018-04-24T20:33:15.418Z,85.10
2018-04-24T20:35:41.857Z,84.30
2018-04-24T20:38:09.057Z,85.30
2018-04-24T20:40:35.487Z,84.70
2018-04-24T20:43:01.933Z,85.10
2018-04-24T20:45:28.390Z,85.20
2018-04-24T20:47:54.826Z,85.20
2018-04-24T20:50:22.761Z,85.40
2018-04-24T20:52:49.220Z,85.40
2018-04-24T20:55:15.652Z,85.60
2018-04-24T20:57:42.179Z,85.90
2018-04-24T21:00:08.653Z,86.00
2018-04-24T21:02:35.096Z,86.00
2018-04-24T21:05:01.540Z,86.10
2018-04-24T21:07:28.266Z,86.40
2018-04-24T21:09:54.743Z,86.60
2018-04-24T21:12:21.284Z,86.60
2018-04-24T21:14:47.717Z,86.90
2018-04-24T21:17:14.920Z,86.60
2018-04-24T21:19:41.429Z,87.10
2018-04-24T21:22:07.838Z,87.10
2018-04-24T21:24:35.029Z,87.60
2018-04-24T21:27:01.490Z,87.60
2018-04-24T21:29:27.932Z,87.50
2018-04-24T21:31:54.351Z,87.50
2018-04-24T21:34:20.802Z,87.60
2018-04-24T21:36:47.242Z,87.70
2018-04-24T21:39:13.704Z,87.90
2018-04-24T21:41:40.947Z,88.70
2018-04-24T21:44:07.318Z,88.10
2018-04-24T21:46:33.790Z,87.90
2018-04-24T21:49:00.258Z,88.40
2018-04-24T21:51:27.421Z,89.10
2018-04-24T21:53:53.876Z,89.10
2018-04-24T21:56:20.329Z,89.00
2018-04-24T21:58:46.763Z,89.40
2018-04-24T22:01:13.234Z,89.60
2018-04-24T22:03:39.684Z,89.90
2018-04-24T22:06:06.862Z,90.10
2018-04-24T22:08:33.327Z,90.10
2018-04-24T22:10:59.749Z,89.60
2018-04-24T22:13:26.234Z,89.90
2018-04-24T22:15:53.429Z,90.00
2018-04-24T22:18:19.857Z,90.00
2018-04-24T22:20:46.294Z,90.10
2018-04-24T22:23:12.747Z,89.90
2018-04-24T22:25:39.184Z,90.00
2018-04-24T22:28:06.355Z,89.90
2018-04-24T22:30:32.832Z,89.90
2018-04-24T22:32:59.392Z,90.00
2018-04-24T22:35:25.805Z,90.00
2018-04-24T22:37:52.271Z,90.00
2018-04-24T22:40:18.754Z,90.00
2018-04-24T22:42:45.244Z,90.10
2018-04-24T22:45:11.676Z,90.00
2018-04-24T22:47:38.136Z,90.10
2018-04-24T22:50:05.319Z,90.40
2018-04-24T22:52:31.747Z,90.30
2018-04-24T22:54:58.183Z,90.40
2018-04-24T22:57:24.633Z,90.50
2018-04-24T22:59:51.117Z,90.50
2018-04-24T23:02:18.333Z,90.60
2018-04-24T23:04:44.759Z,90.60
2018-04-24T23:07:11.190Z,90.70
2018-04-24T23:09:37.707Z,91.00
2018-04-24T23:12:16.320Z,91.10
2018-04-24T23:14:55.036Z,91.10
2018-04-24T23:17:34.413Z,91.20
2018-04-24T23:20:13.118Z,91.30
2018-04-24T23:22:40.537Z,91.40
2018-04-24T23:25:06.973Z,91.30
2018-04-24T23:27:34.203Z,91.50
2018-04-24T23:30:00.665Z,91.30
2018-04-24T23:32:27.900Z,91.10
2018-04-24T23:34:54.354Z,91.10
2018-04-24T23:37:21.543Z,91.00
2018-04-24T23:39:47.973Z,91.00
2018-04-24T23:42:14.470Z,90.90
2018-04-24T23:44:40.951Z,91.00
2018-04-24T23:47:07.454Z,90.70
2018-04-24T23:49:33.922Z,90.60
2018-04-24T23:52:00.385Z,90.60
2018-04-24T23:54:26.838Z,90.20
2018-04-24T23:56:53.311Z,90.20
2018-04-24T23:59:19.766Z,90.20
